Time;durP1;ratioP1;P1;durP2;ratioP2;P2;SDS_P1;SDS_P2;PMS_P1;PMS_P2;Temp;Humidity;BMP_temperature;BMP_pressure;BME280_temperature;BME280_humidity;BME280_pressure;Samples;Min_cycle;Max_cycle;Signal;HPM_P1;HPM_P2
2023/10/31 00:01:14;;;;;;;4.40;1.65;;;;;;;19.19;66.83;95305.41;10368741;28;20459;-29
2023/10/31 00:06:14;;;;;;;4.07;2.97;;;;;;;19.20;66.50;95319.75;10371220;28;20057;-29
2023/10/31 00:11:14;;;;;;;1.93;1.40;;;;;;;19.19;66.31;95311.31;10365901;28;20034;-28
2023/10/31 00:16:15;;;;;;;3.77;1.60;;;;;;;19.20;66.41;95309.63;10370826;28;20747;-29
2023/10/31 00:21:15;;;;;;;5.87;2.07;;;;;;;19.20;66.16;95315.53;10366807;28;20038;-29
2023/10/31 00:26:15;;;;;;;3.87;1.37;;;;;;;19.21;66.28;95321.44;10369763;28;20049;-29
2023/10/31 00:31:23;;;;;;;5.63;1.50;;;;;;;19.20;66.16;95318.06;10362970;28;20098;-28
2023/10/31 00:36:23;;;;;;;3.23;1.63;;;;;;;19.16;66.05;95310.56;10356978;28;20091;-30
2023/10/31 00:41:23;;;;;;;2.60;1.30;;;;;;;19.16;66.28;95308.00;10368923;28;20148;-29
2023/10/31 00:46:24;;;;;;;3.27;1.30;;;;;;;19.15;66.27;95307.16;10369351;28;20045;-29
2023/10/31 00:51:27;;;;;;;5.05;1.65;;;;;;;19.16;66.27;95310.56;10357038;28;20085;-29
2023/10/31 00:56:27;;;;;;;4.75;1.25;;;;;;;19.18;66.38;95313.88;10368069;28;20037;-29
2023/10/31 01:01:28;;;;;;;1.80;1.10;;;;;;;19.19;66.33;95313.03;10357522;28;20053;-29
2023/10/31 01:06:28;;;;;;;3.33;1.53;;;;;;;19.16;66.22;95292.78;10368155;28;20096;-29
2023/10/31 01:11:28;;;;;;;3.70;1.37;;;;;;;19.17;66.14;95309.69;10365496;28;20041;-29
2023/10/31 01:16:29;;;;;;;3.07;1.27;;;;;;;19.16;66.03;95308.81;10360223;28;20068;-29
2023/10/31 01:21:29;;;;;;;3.30;1.70;;;;;;;19.15;66.17;95321.53;10364347;28;20053;-29
2023/10/31 01:26:29;;;;;;;2.70;1.03;;;;;;;19.14;66.06;95319.88;10367522;28;20037;-30
2023/10/31 01:31:30;;;;;;;4.60;1.00;;;;;;;19.13;65.88;95328.38;10368156;28;20041;-28
2023/10/31 01:36:33;;;;;;;3.15;1.45;;;;;;;19.14;66.37;95320.72;10364490;28;20280;-29
2023/10/31 01:41:33;;;;;;;3.28;1.33;;;;;;;19.14;66.12;95317.34;10359096;28;20551;-30
2023/10/31 01:46:34;;;;;;;4.15;1.33;;;;;;;19.14;65.70;95315.66;10358309;28;20661;-29
2023/10/31 01:51:36;;;;;;;2.35;1.13;;;;;;;19.14;65.83;95320.72;10365740;28;20030;-29
2023/10/31 01:56:37;;;;;;;1.73;1.10;;;;;;;19.18;65.89;95326.56;10357225;28;20072;-29
2023/10/31 02:01:41;;;;;;;1.60;0.93;;;;;;;19.17;65.78;95335.84;10357907;28;20296;-29
2023/10/31 02:06:42;;;;;;;6.18;1.35;;;;;;;19.15;65.70;95344.38;10366201;28;20038;-28
2023/10/31 02:11:42;;;;;;;1.13;0.80;;;;;;;19.16;65.67;95356.22;10365679;28;20030;-30
2023/10/31 02:16:42;;;;;;;2.70;1.00;;;;;;;19.15;65.70;95364.66;10367204;28;20277;-30
2023/10/31 02:21:43;;;;;;;4.13;1.37;;;;;;;19.14;65.92;95365.53;10360085;28;20095;-29
2023/10/31 02:26:43;;;;;;;3.37;1.10;;;;;;;19.14;65.91;95385.84;10360090;28;20042;-29
2023/10/31 02:31:43;;;;;;;2.07;1.10;;;;;;;19.15;65.91;95408.63;10369292;28;20053;-29
2023/10/31 02:36:44;;;;;;;1.60;1.00;;;;;;;19.12;65.93;95410.41;10352948;28;20112;-28
2023/10/31 02:41:44;;;;;;;1.70;1.00;;;;;;;19.14;65.77;95419.66;10370520;28;20095;-29
2023/10/31 02:46:44;;;;;;;3.60;1.17;;;;;;;19.13;65.83;95429.84;10374052;28;20030;-29
2023/10/31 02:51:45;;;;;;;3.30;1.10;;;;;;;19.12;65.81;95423.09;10363109;28;20037;-29
2023/10/31 02:56:45;;;;;;;1.40;0.70;;;;;;;19.13;65.68;95428.16;10353032;28;20080;-29
2023/10/31 03:01:46;;;;;;;2.40;1.25;;;;;;;19.05;65.86;95416.50;10371768;28;20053;-29
2023/10/31 03:06:47;;;;;;;2.93;0.87;;;;;;;19.11;65.93;95416.34;10435226;28;20499;-29
2023/10/31 03:11:47;;;;;;;2.87;0.90;;;;;;;19.12;65.94;95431.56;10453631;28;20102;-29
2023/10/31 03:16:47;;;;;;;1.73;0.90;;;;;;;19.13;65.45;95439.97;10434849;28;20480;-29
2023/10/31 03:21:48;;;;;;;2.67;1.07;;;;;;;19.13;65.40;95456.06;10454795;28;20097;-29
2023/10/31 03:26:49;;;;;;;1.27;0.95;;;;;;;19.13;65.33;95465.34;10423460;28;20071;-30
2023/10/31 03:31:50;;;;;;;2.63;1.00;;;;;;;19.14;65.35;95459.41;10435101;28;20163;-29
2023/10/31 03:36:51;;;;;;;1.85;1.00;;;;;;;19.14;65.36;95461.94;10449522;28;21162;-29
2023/10/31 03:41:51;;;;;;;1.77;0.90;;;;;;;19.12;65.36;95458.63;10433552;28;20033;-29
2023/10/31 03:46:51;;;;;;;4.10;0.97;;;;;;;19.13;65.05;95460.28;10454188;28;20041;-29
2023/10/31 03:51:52;;;;;;;4.47;1.30;;;;;;;19.13;65.20;95460.28;10437886;28;20037;-29
2023/10/31 03:56:52;;;;;;;3.03;0.87;;;;;;;19.12;65.41;95473.84;10448585;28;20060;-29
2023/10/31 04:01:52;;;;;;;3.10;1.27;;;;;;;19.12;65.38;95478.91;10451652;28;20124;-28
2023/10/31 04:06:53;;;;;;;2.87;1.80;;;;;;;19.12;65.33;95483.97;10451321;28;20308;-28
2023/10/31 04:11:53;;;;;;;2.40;0.93;;;;;;;19.10;65.39;95486.53;10450991;28;20047;-29
2023/10/31 04:16:53;;;;;;;1.80;0.63;;;;;;;19.10;65.33;95486.53;10449950;28;20491;-29
2023/10/31 04:21:54;;;;;;;1.43;0.90;;;;;;;19.07;65.34;95481.53;10452522;28;20555;-28
2023/10/31 04:26:54;;;;;;;1.33;1.00;;;;;;;19.09;65.13;95495.03;10445104;28;20033;-29
2023/10/31 04:31:55;;;;;;;3.33;1.03;;;;;;;19.11;65.12;95492.47;10451775;28;20041;-29
2023/10/31 04:36:55;;;;;;;1.60;0.80;;;;;;;19.11;65.23;95488.25;10444420;28;20041;-29
2023/10/31 04:41:55;;;;;;;0.73;0.70;;;;;;;19.17;64.81;95492.34;10443586;28;20044;-30
2023/10/31 04:46:56;;;;;;;3.10;1.00;;;;;;;19.21;64.52;95496.50;10439829;28;20129;-29
2023/10/31 04:51:56;;;;;;;4.77;0.90;;;;;;;19.24;64.34;95499.81;10445489;28;20037;-29
2023/10/31 04:56:56;;;;;;;1.77;0.67;;;;;;;19.25;64.29;95511.63;10442792;28;20032;-28
2023/10/31 05:01:57;;;;;;;1.70;0.90;;;;;;;19.27;64.18;95498.91;10439610;28;20291;-28
2023/10/31 05:06:58;;;;;;;1.70;1.20;;;;;;;19.30;64.07;95506.44;10435608;28;20138;-29
2023/10/31 05:11:58;;;;;;;5.18;1.05;;;;;;;19.33;63.82;95503.84;10448702;28;20044;-30
2023/10/31 05:16:59;;;;;;;5.73;1.60;;;;;;;19.35;63.65;95514.78;10447885;28;20045;-29
2023/10/31 05:21:59;;;;;;;2.13;1.07;;;;;;;19.36;63.70;95519.84;10449404;28;20295;-29
2023/10/31 05:26:59;;;;;;;6.63;2.03;;;;;;;19.34;63.46;95511.41;10435585;28;20111;-29
2023/10/31 05:32:01;;;;;;;2.70;1.57;;;;;;;19.35;63.60;95528.31;10435606;28;20041;-29
2023/10/31 05:37:01;;;;;;;5.47;1.00;;;;;;;19.34;63.33;95521.56;10445132;28;20052;-29
2023/10/31 05:42:03;;;;;;;2.65;1.10;;;;;;;19.33;63.27;95514.81;10447314;28;20499;-29
2023/10/31 05:47:03;;;;;;;5.22;0.98;;;;;;;19.31;63.17;95510.63;10435598;28;20021;-29
2023/10/31 05:52:04;;;;;;;2.63;1.00;;;;;;;19.30;63.28;95514.03;10431997;28;20112;-29
2023/10/31 05:57:04;;;;;;;2.55;0.98;;;;;;;19.35;63.16;95517.31;10445804;28;20534;-30
2023/10/31 06:02:05;;;;;;;3.00;1.13;;;;;;;19.33;62.93;95519.06;10448892;28;20116;-29
2023/10/31 06:07:06;;;;;;;2.30;1.30;;;;;;;19.33;62.73;95524.16;10424385;28;20041;-28
2023/10/31 06:12:07;;;;;;;4.82;1.35;;;;;;;19.31;62.89;95531.78;10443299;28;20035;-29
2023/10/31 06:17:07;;;;;;;1.50;0.80;;;;;;;19.32;62.80;95545.28;10442234;28;20503;-29
2023/10/31 06:22:07;;;;;;;13.27;1.57;;;;;;;19.30;62.77;95554.66;10442374;28;20482;-29
2023/10/31 06:27:08;;;;;;;4.60;0.90;;;;;;;19.31;62.45;95557.16;10447501;28;20414;-28
2023/10/31 06:32:08;;;;;;;3.37;0.93;;;;;;;19.29;62.54;95563.97;10448295;28;20514;-29
2023/10/31 06:37:08;;;;;;;7.80;1.00;;;;;;;19.30;62.36;95574.94;10446804;28;20093;-29
2023/10/31 06:42:09;;;;;;;2.53;1.07;;;;;;;19.33;62.10;95577.44;10431189;28;20036;-29
2023/10/31 06:47:09;;;;;;;5.75;1.67;;;;;;;19.31;62.18;95586.75;10412314;28;20037;-29
2023/10/31 06:52:09;;;;;;;3.33;1.20;;;;;;;19.29;62.08;95588.50;10443481;28;20116;-28
2023/10/31 06:57:10;;;;;;;4.40;1.10;;;;;;;19.31;61.87;95584.22;10426730;28;20041;-29
2023/10/31 07:02:10;;;;;;;3.27;0.87;;;;;;;19.31;61.83;95599.47;10447764;28;20384;-29
2023/10/31 07:07:10;;;;;;;2.87;0.77;;;;;;;19.31;61.91;95607.06;10424034;28;20406;-29
2023/10/31 07:12:11;;;;;;;9.63;1.93;;;;;;;19.32;61.88;95608.72;10418223;28;20434;-29
2023/10/31 07:17:11;;;;;;;4.67;1.07;;;;;;;19.32;61.94;95613.81;10434959;28;20476;-29
2023/10/31 07:22:11;;;;;;;3.57;0.83;;;;;;;19.08;60.96;95609.22;10454292;28;20287;-29
2023/10/31 07:27:12;;;;;;;2.23;0.80;;;;;;;18.96;60.67;95607.75;10433258;28;20033;-29
2023/10/31 07:32:12;;;;;;;6.23;1.10;;;;;;;18.90;59.78;95622.25;10434240;28;20112;-29
2023/10/31 07:37:13;;;;;;;3.33;0.88;;;;;;;18.91;59.28;95626.47;10451148;28;20032;-29
2023/10/31 07:42:13;;;;;;;3.77;0.80;;;;;;;18.84;58.59;95635.06;10453274;28;20056;-29
2023/10/31 07:47:14;;;;;;;1.52;0.80;;;;;;;18.89;59.36;95635.78;10435250;28;20033;-29
2023/10/31 07:52:15;;;;;;;7.40;1.57;;;;;;;18.99;59.49;95643.19;10449708;28;20033;-29
2023/10/31 07:57:15;;;;;;;11.15;2.65;;;;;;;19.15;59.61;95641.19;10439046;28;20561;-29
2023/10/31 08:02:15;;;;;;;7.00;1.83;;;;;;;19.17;59.80;95639.50;10450092;28;20037;-29
2023/10/31 08:07:16;;;;;;;4.93;1.25;;;;;;;19.22;59.74;95642.78;10428845;28;20037;-29
2023/10/31 08:12:16;;;;;;;6.13;1.90;;;;;;;19.00;58.88;95652.47;10432876;28;20075;-28
2023/10/31 08:17:17;;;;;;;5.17;1.10;;;;;;;19.12;58.58;95669.16;10452515;28;20045;-29
2023/10/31 08:22:17;;;;;;;3.15;1.08;;;;;;;19.14;59.42;95657.28;10444698;28;20043;-29
2023/10/31 08:27:17;;;;;;;4.23;1.20;;;;;;;19.10;59.46;95663.31;10451413;28;20443;-28
2023/10/31 08:32:18;;;;;;;8.80;1.47;;;;;;;19.17;59.65;95667.41;10452046;28;20279;-29
2023/10/31 08:37:18;;;;;;;3.00;1.20;;;;;;;19.16;60.14;95663.19;10450236;28;20813;-30
2023/10/31 08:42:18;;;;;;;7.77;1.33;;;;;;;19.15;60.35;95669.94;10442773;28;20363;-30
2023/10/31 08:47:19;;;;;;;4.83;1.07;;;;;;;19.15;60.43;95681.78;10451015;28;20037;-29
2023/10/31 08:52:19;;;;;;;3.37;1.33;;;;;;;19.14;60.50;95680.13;10445409;28;20024;-30
2023/10/31 08:57:20;;;;;;;6.57;2.10;;;;;;;19.18;59.16;95681.75;10440779;28;20530;-28
2023/10/31 09:02:20;;;;;;;13.20;2.90;;;;;;;19.17;60.38;95690.22;10453511;28;20139;-29
2023/10/31 09:07:20;;;;;;;8.57;2.07;;;;;;;19.12;61.06;95697.06;10446607;28;20029;-29
2023/10/31 09:12:21;;;;;;;8.20;1.70;;;;;;;19.18;60.96;95702.88;10453793;28;20420;-29
2023/10/31 09:17:21;;;;;;;8.23;2.33;;;;;;;19.15;61.28;95697.00;10450011;28;20025;-30
2023/10/31 09:22:21;;;;;;;3.47;1.38;;;;;;;19.14;61.10;95705.50;10444643;28;20035;-28
2023/10/31 09:27:22;;;;;;;6.83;1.93;;;;;;;19.12;61.59;95702.16;10448221;28;20567;-29
2023/10/31 09:32:22;;;;;;;4.37;1.07;;;;;;;19.11;61.50;95692.88;10448991;28;20033;-28
2023/10/31 09:37:22;;;;;;;5.23;1.63;;;;;;;19.09;61.71;95695.44;10447108;28;20108;-29
2023/10/31 09:42:23;;;;;;;6.88;1.73;;;;;;;19.11;61.88;95695.41;10446459;28;20116;-28
2023/10/31 09:47:24;;;;;;;5.77;0.90;;;;;;;19.05;61.76;95711.59;10447577;28;20033;-29
2023/10/31 09:52:25;;;;;;;6.45;1.27;;;;;;;19.08;61.57;95695.47;10445854;28;20109;-29
2023/10/31 09:57:26;;;;;;;4.45;1.02;;;;;;;19.10;61.45;95694.56;10447149;28;20104;-29
2023/10/31 10:02:26;;;;;;;5.50;0.90;;;;;;;19.11;61.54;95691.19;10446752;28;20520;-29
2023/10/31 10:07:27;;;;;;;6.00;1.13;;;;;;;19.08;61.95;95705.63;10444711;28;20033;-29
2023/10/31 10:12:27;;;;;;;5.93;1.57;;;;;;;19.11;61.80;95708.09;10447975;28;20033;-28
2023/10/31 10:17:27;;;;;;;9.20;1.33;;;;;;;19.10;61.65;95712.31;10446460;28;20032;-29
2023/10/31 10:22:28;;;;;;;14.03;2.33;;;;;;;19.11;61.91;95706.41;10440085;28;20410;-29
2023/10/31 10:27:29;;;;;;;12.32;2.10;;;;;;;19.10;61.85;95708.97;10447688;28;20033;-28
2023/10/31 10:32:29;;;;;;;6.33;1.43;;;;;;;19.07;60.87;95706.47;10436973;28;20025;-28
2023/10/31 10:37:30;;;;;;;6.60;1.10;;;;;;;18.98;58.30;95706.63;10419246;28;20094;-29
2023/10/31 10:42:35;;;;;;;11.23;1.35;;;;;;;19.05;59.07;95713.28;10449116;28;20029;-29
2023/10/31 10:47:36;;;;;;;5.95;1.17;;;;;;;19.14;59.54;95710.56;10456086;28;20091;-29
2023/10/31 10:52:53;;;;;;;6.18;0.98;;;;;;;19.19;59.94;95708.81;10455482;28;20090;-29
2023/10/31 10:58:12;;;;;;;5.15;0.95;;;;;;;19.16;60.13;95703.78;10453871;28;20029;-29
2023/10/31 11:03:14;;;;;;;3.15;0.85;;;;;;;19.22;60.19;95711.28;10449162;28;20033;-30
2023/10/31 11:08:15;;;;;;;5.32;1.42;;;;;;;19.23;60.31;95705.34;10446901;28;20045;-29
2023/10/31 11:13:16;;;;;;;5.68;0.70;;;;;;;19.21;60.66;95710.47;10451402;28;20049;-29
2023/10/31 11:18:18;;;;;;;4.90;0.75;;;;;;;19.22;60.69;95703.69;10452388;28;20036;-29
2023/10/31 11:23:20;;;;;;;4.22;0.82;;;;;;;19.24;60.48;95717.19;10452801;28;20041;-29
2023/10/31 11:28:20;;;;;;;4.20;2.22;;;;;;;19.22;60.67;95709.59;10452604;28;20119;-29
2023/10/31 11:33:21;;;;;;;3.42;1.33;;;;;;;19.24;60.59;95709.59;10454805;28;20057;-28
2023/10/31 11:38:32;;;;;;;2.17;0.65;;;;;;;19.21;60.79;95712.16;10447318;28;20043;-30
2023/10/31 11:43:51;;;;;;;2.38;0.75;;;;;;;19.24;60.72;95722.28;10449873;28;20037;-29
2023/10/31 11:48:53;;;;;;;1.23;0.52;;;;;;;19.25;61.02;95729.84;10453154;28;20509;-28
2023/10/31 11:53:53;;;;;;;3.92;0.77;;;;;;;19.20;60.97;95728.25;10453582;28;20112;-28
2023/10/31 11:59:06;;;;;;;2.15;0.93;;;;;;;19.24;61.06;95735.78;10430506;28;20580;-29
2023/10/31 12:04:06;;;;;;;2.35;1.08;;;;;;;19.26;61.10;95740.84;10453271;28;20407;-28
2023/10/31 12:09:07;;;;;;;2.17;0.70;;;;;;;19.27;60.78;95739.97;10448237;28;20032;-29
2023/10/31 12:14:09;;;;;;;1.17;0.40;;;;;;;19.26;61.03;95751.81;10454258;28;20025;-29
2023/10/31 12:19:09;;;;;;;1.88;0.60;;;;;;;19.25;61.28;95751.84;10447466;28;20040;-29
2023/10/31 12:24:11;;;;;;;1.23;0.60;;;;;;;19.23;61.02;95745.94;10450550;28;20044;-29
2023/10/31 12:29:16;;;;;;;1.52;1.10;;;;;;;19.24;60.97;95757.81;10452998;28;20501;-28
2023/10/31 12:34:19;;;;;;;3.38;0.52;;;;;;;19.24;61.29;95757.81;10448482;28;20552;-29
2023/10/31 12:39:25;;;;;;;2.05;0.80;;;;;;;19.23;61.35;95763.72;10453766;28;20043;-29
2023/10/31 12:44:27;;;;;;;1.70;0.50;;;;;;;19.22;61.20;95754.44;10450197;28;20034;-30
2023/10/31 12:49:28;;;;;;;3.00;0.60;;;;;;;19.26;61.06;95776.38;10440806;28;20090;-29
2023/10/31 12:54:30;;;;;;;1.35;0.40;;;;;;;19.26;60.93;95774.66;10443390;28;20701;-29
2023/10/31 12:59:31;;;;;;;1.95;0.88;;;;;;;19.27;61.09;95788.19;10451788;28;20064;-28
2023/10/31 13:04:33;;;;;;;0.52;0.35;;;;;;;19.27;61.15;95804.22;10446266;28;20069;-30
2023/10/31 13:09:36;;;;;;;4.07;1.17;;;;;;;19.26;61.33;95791.59;10441632;28;20451;-29
2023/10/31 13:14:39;;;;;;;0.60;0.40;;;;;;;19.25;61.58;95797.53;10450019;28;20119;-29
2023/10/31 13:19:41;;;;;;;1.63;0.50;;;;;;;19.25;61.32;95807.69;10447037;28;20410;-31
2023/10/31 13:24:42;;;;;;;1.23;0.43;;;;;;;19.21;61.42;95793.34;10439961;28;20391;-29
2023/10/31 13:29:43;;;;;;;1.00;0.50;;;;;;;19.25;61.50;95811.03;10451342;28;20025;-30
2023/10/31 13:34:43;;;;;;;3.67;0.80;;;;;;;19.23;61.43;95811.91;10447683;28;20447;-29
2023/10/31 13:39:44;;;;;;;2.30;0.60;;;;;;;19.23;61.58;95814.47;10442231;28;20068;-29
2023/10/31 13:44:44;;;;;;;1.38;0.40;;;;;;;19.21;61.85;95818.72;10448067;28;20295;-29
2023/10/31 13:49:44;;;;;;;1.43;0.50;;;;;;;19.20;61.64;95822.13;10445489;28;20147;-29
2023/10/31 13:54:45;;;;;;;0.82;0.35;;;;;;;19.18;61.75;95827.19;10442098;28;20275;-29
2023/10/31 13:59:46;;;;;;;2.47;0.60;;;;;;;19.20;61.72;95827.22;10434591;28;20029;-28
2023/10/31 14:04:46;;;;;;;1.30;0.30;;;;;;;19.16;61.94;95834.00;10447074;28;20033;-28
2023/10/31 14:09:48;;;;;;;1.23;0.67;;;;;;;19.18;61.85;95844.13;10448085;28;20776;-29
2023/10/31 14:14:48;;;;;;;0.70;0.38;;;;;;;19.15;62.20;95839.09;10450610;28;20043;-29
2023/10/31 14:19:49;;;;;;;3.17;0.50;;;;;;;19.12;62.37;95834.09;10455835;28;20410;-28
2023/10/31 14:24:49;;;;;;;0.83;0.37;;;;;;;19.13;62.28;95850.97;10455679;28;20037;-28
2023/10/31 14:29:49;;;;;;;2.43;0.30;;;;;;;19.14;62.05;95847.56;10450268;28;20166;-29
2023/10/31 14:34:50;;;;;;;1.00;0.50;;;;;;;19.13;62.24;95859.44;10439758;28;20488;-29
2023/10/31 14:39:51;;;;;;;0.95;0.45;;;;;;;19.13;61.97;95866.19;10451176;28;20283;-28
2023/10/31 14:44:52;;;;;;;0.70;0.30;;;;;;;19.17;61.81;95875.44;10447982;28;20093;-29
2023/10/31 14:49:52;;;;;;;0.98;0.65;;;;;;;19.15;62.26;95884.75;10437075;28;20029;-28
2023/10/31 14:54:53;;;;;;;0.83;0.30;;;;;;;19.17;61.84;95898.28;10454227;28;20033;-29
2023/10/31 14:59:53;;;;;;;1.73;0.80;;;;;;;19.18;61.89;95907.56;10455515;28;20051;-29
2023/10/31 15:04:53;;;;;;;1.03;0.73;;;;;;;19.16;61.92;95907.59;10446528;28;20454;-29
2023/10/31 15:09:54;;;;;;;0.63;0.40;;;;;;;19.17;61.93;95919.41;10433248;28;20080;-29
2023/10/31 15:14:55;;;;;;;0.83;0.67;;;;;;;19.16;62.08;95922.00;10451220;28;20072;-30
2023/10/31 15:19:55;;;;;;;1.45;0.40;;;;;;;19.17;61.89;95928.72;10454885;28;20108;-30
2023/10/31 15:24:55;;;;;;;0.50;0.20;;;;;;;19.16;61.95;95924.53;10435872;28;20040;-29
2023/10/31 15:29:56;;;;;;;0.95;0.40;;;;;;;19.14;61.97;95936.38;10440707;28;20078;-29
2023/10/31 15:34:56;;;;;;;0.73;0.37;;;;;;;19.14;62.10;95941.44;10436494;28;20048;-29
2023/10/31 15:39:57;;;;;;;1.43;0.30;;;;;;;19.14;62.27;95959.22;10453331;28;20136;-29
2023/10/31 15:44:57;;;;;;;1.42;0.30;;;;;;;19.15;62.03;95950.72;10454228;28;20497;-29
2023/10/31 15:49:58;;;;;;;0.50;0.30;;;;;;;19.13;62.06;95967.69;10444471;28;20037;-29
2023/10/31 15:54:58;;;;;;;0.53;0.30;;;;;;;19.13;61.98;95970.22;10442555;28;20099;-29
2023/10/31 15:59:59;;;;;;;1.20;0.30;;;;;;;19.14;62.21;95979.50;10448761;28;20035;-28
2023/10/31 16:04:59;;;;;;;0.53;0.30;;;;;;;19.12;62.13;95988.84;10446014;28;20296;-29
2023/10/31 16:09:59;;;;;;;0.20;0.20;;;;;;;19.11;61.95;95997.31;10437673;28;20064;-29
2023/10/31 16:15:00;;;;;;;1.90;0.30;;;;;;;19.14;62.03;96007.41;10453211;28;20714;-29
2023/10/31 16:20:00;;;;;;;0.17;0.10;;;;;;;19.12;61.88;96017.59;10446149;28;20037;-29
2023/10/31 16:25:01;;;;;;;0.95;0.30;;;;;;;19.13;62.16;96008.28;10445202;28;20037;-29
2023/10/31 16:30:02;;;;;;;0.57;0.25;;;;;;;19.13;62.02;96026.03;10452253;28;20499;-28
2023/10/31 16:35:04;;;;;;;0.47;0.30;;;;;;;19.15;61.99;96034.47;10451210;28;20020;-29
2023/10/31 16:40:05;;;;;;;0.40;0.30;;;;;;;19.15;61.80;96031.91;10451214;28;20044;-28
2023/10/31 16:45:06;;;;;;;0.28;0.20;;;;;;;19.20;61.63;96050.50;10451619;28;20029;-29
2023/10/31 16:50:07;;;;;;;1.05;0.38;;;;;;;19.19;61.75;96048.84;10451096;28;20063;-29
2023/10/31 16:55:07;;;;;;;1.13;0.43;;;;;;;19.18;61.63;96053.03;10450757;28;20871;-29
2023/10/31 17:00:08;;;;;;;0.95;0.68;;;;;;;19.07;60.53;96069.25;10443546;28;20025;-29
2023/10/31 17:05:08;;;;;;;0.95;0.30;;;;;;;19.15;60.84;96073.38;10441222;28;20048;-28
2023/10/31 17:10:09;;;;;;;4.40;0.43;;;;;;;19.21;61.94;96090.25;10423223;28;20036;-28
2023/10/31 17:15:09;;;;;;;2.78;0.40;;;;;;;19.19;62.34;96094.50;10432024;28;20462;-30
2023/10/31 17:20:10;;;;;;;1.77;0.52;;;;;;;19.20;61.84;96093.66;10449087;28;20036;-29
2023/10/31 17:25:11;;;;;;;3.92;0.60;;;;;;;19.22;61.54;96118.16;10433053;28;20049;-29
2023/10/31 17:30:12;;;;;;;4.45;0.52;;;;;;;19.25;61.17;96122.34;10436901;28;20032;-29
2023/10/31 17:35:12;;;;;;;2.60;0.80;;;;;;;19.22;61.33;96124.91;10421926;28;20710;-29
2023/10/31 17:40:13;;;;;;;3.38;1.23;;;;;;;19.07;60.68;96140.28;10422094;28;20037;-29
2023/10/31 17:45:14;;;;;;;3.33;0.55;;;;;;;19.11;60.82;96147.88;10428867;28;20033;-29
2023/10/31 17:50:14;;;;;;;3.67;0.63;;;;;;;19.15;61.49;96158.78;10438446;28;20044;-29
2023/10/31 17:55:18;;;;;;;3.78;0.73;;;;;;;19.10;61.72;96160.56;10448453;28;20108;-29
2023/10/31 18:00:19;;;;;;;0.70;0.55;;;;;;;19.09;61.97;96159.72;10438354;28;20070;-29
2023/10/31 18:05:19;;;;;;;2.15;0.70;;;;;;;19.11;62.00;96172.38;10434424;28;20041;-28
2023/10/31 18:10:20;;;;;;;2.60;0.60;;;;;;;19.10;62.08;96180.88;10427022;28;20085;-29
2023/10/31 18:15:20;;;;;;;0.93;0.50;;;;;;;19.09;62.20;96181.72;10444455;28;20033;-29
2023/10/31 18:20:21;;;;;;;3.73;0.50;;;;;;;19.08;62.17;96182.59;10427646;28;20040;-29
2023/10/31 18:25:21;;;;;;;1.27;0.40;;;;;;;19.10;62.16;96191.00;10442062;28;20110;-28
2023/10/31 18:30:22;;;;;;;0.90;0.60;;;;;;;19.09;62.24;96197.75;10432884;28;20041;-29
2023/10/31 18:35:25;;;;;;;1.65;0.60;;;;;;;19.09;61.86;96199.47;10428292;28;20040;-29
2023/10/31 18:40:25;;;;;;;1.75;0.77;;;;;;;19.05;62.29;96190.22;10436151;28;20025;-29
2023/10/31 18:45:26;;;;;;;2.47;0.60;;;;;;;19.07;62.28;96201.16;10425595;28;20558;-29
2023/10/31 18:50:26;;;;;;;2.08;0.30;;;;;;;19.05;62.27;96207.97;10433954;28;20305;-29
2023/10/31 18:55:27;;;;;;;1.27;0.50;;;;;;;19.07;62.35;96221.47;10447575;28;20120;-29
2023/10/31 19:00:27;;;;;;;2.65;0.55;;;;;;;19.06;62.39;96227.41;10441586;28;20040;-29
2023/10/31 19:05:29;;;;;;;0.77;0.40;;;;;;;19.06;62.39;96235.00;10442242;28;20453;-28
2023/10/31 19:10:29;;;;;;;1.33;0.50;;;;;;;19.04;62.67;96224.91;10434996;28;20299;-29
2023/10/31 19:15:29;;;;;;;1.60;0.43;;;;;;;19.03;62.56;96235.06;10455776;28;20029;-28
2023/10/31 19:20:30;;;;;;;2.00;0.20;;;;;;;19.04;62.96;96244.34;10437875;28;20060;-29
2023/10/31 19:25:31;;;;;;;0.50;0.20;;;;;;;19.04;63.15;96236.72;10426767;28;20295;-29
2023/10/31 19:30:31;;;;;;;0.88;0.38;;;;;;;19.03;62.94;96242.66;10454814;28;20040;-29
2023/10/31 19:35:32;;;;;;;0.40;0.33;;;;;;;19.05;63.37;96248.56;10446824;28;20036;-29
2023/10/31 19:40:33;;;;;;;0.85;0.30;;;;;;;19.07;63.50;96247.69;10427213;28;20045;-29
2023/10/31 19:45:34;;;;;;;0.85;0.40;;;;;;;19.05;63.52;96256.16;10454193;28;20033;-29
2023/10/31 19:50:34;;;;;;;1.80;0.40;;;;;;;19.02;63.79;96259.56;10453234;28;20037;-29
2023/10/31 19:55:34;;;;;;;0.75;0.20;;;;;;;19.02;63.89;96249.44;10453146;28;20314;-29
2023/10/31 20:00:35;;;;;;;1.70;0.40;;;;;;;19.02;63.95;96248.59;10453502;28;20037;-29
2023/10/31 20:05:35;;;;;;;0.55;0.30;;;;;;;19.01;64.64;96249.47;10432873;28;20674;-29
2023/10/31 20:10:36;;;;;;;0.77;0.30;;;;;;;19.00;64.27;96246.06;10434984;28;20505;-29
2023/10/31 20:15:36;;;;;;;1.58;0.40;;;;;;;18.99;64.56;96263.88;10422544;28;20033;-29
2023/10/31 20:20:36;;;;;;;0.60;0.40;;;;;;;18.97;64.32;96251.19;10431526;28;20036;-29
2023/10/31 20:25:38;;;;;;;0.40;0.30;;;;;;;19.00;64.46;96250.31;10444653;28;20295;-29
2023/10/31 20:30:38;;;;;;;0.45;0.32;;;;;;;18.98;64.39;96250.31;10451847;28;20294;-29
2023/10/31 20:35:39;;;;;;;0.87;0.30;;;;;;;18.99;64.41;96261.31;10448484;28;20380;-29
2023/10/31 20:40:39;;;;;;;3.07;0.40;;;;;;;19.00;64.51;96247.78;10431048;28;20045;-29
2023/10/31 20:45:39;;;;;;;1.15;0.70;;;;;;;19.00;64.34;96245.25;10430730;28;20079;-29
2023/10/31 20:50:42;;;;;;;0.80;0.30;;;;;;;18.95;64.49;96229.22;10422689;28;20048;-29
2023/10/31 20:55:43;;;;;;;1.33;0.50;;;;;;;18.96;64.36;96219.06;10421553;28;20502;-29
2023/10/31 21:00:43;;;;;;;0.10;0.10;;;;;;;18.96;64.46;96214.00;10443559;28;20186;-29
2023/10/31 21:05:43;;;;;;;0.55;0.43;;;;;;;18.98;64.46;96216.50;10436342;28;20045;-29
2023/10/31 21:10:44;;;;;;;0.30;0.20;;;;;;;18.96;64.34;96208.06;10435698;28;20065;-28
2023/10/31 21:15:45;;;;;;;0.83;0.33;;;;;;;18.96;64.23;96208.06;10426173;28;20032;-29
2023/10/31 21:20:46;;;;;;;0.65;0.40;;;;;;;18.93;64.67;96198.78;10444330;28;20414;-29
2023/10/31 21:25:47;;;;;;;0.40;0.30;;;;;;;18.92;64.50;96192.03;10448893;28;20033;-29
2023/10/31 21:30:52;;;;;;;0.50;0.25;;;;;;;18.93;64.38;96183.56;10450071;28;20526;-29
2023/10/31 21:35:53;;;;;;;0.82;0.40;;;;;;;18.89;64.39;96174.31;10434829;28;20063;-29
2023/10/31 21:40:53;;;;;;;0.13;0.13;;;;;;;18.89;64.48;96179.38;10447780;28;20037;-30
2023/10/31 21:45:54;;;;;;;0.70;0.30;;;;;;;18.91;64.22;96185.28;10425990;28;20033;-29
2023/10/31 21:50:54;;;;;;;0.20;0.17;;;;;;;18.90;64.23;96183.59;10417413;28;20032;-29
2023/10/31 21:55:55;;;;;;;1.60;0.23;;;;;;;18.86;64.36;96181.13;10410928;28;20029;-29
2023/10/31 22:00:58;;;;;;;0.30;0.20;;;;;;;18.91;64.18;96179.38;10432767;28;20033;-29
2023/10/31 22:05:59;;;;;;;0.40;0.30;;;;;;;18.91;64.22;96179.38;10424748;28;20025;-29
2023/10/31 22:10:59;;;;;;;0.40;0.30;;;;;;;18.88;64.31;96180.25;10448199;28;20626;-29
2023/10/31 22:15:59;;;;;;;0.37;0.20;;;;;;;18.89;63.86;96181.06;10448538;28;20116;-29
2023/10/31 22:21:00;;;;;;;0.20;0.10;;;;;;;18.88;64.06;96180.25;10442999;28;20064;-29
2023/10/31 22:26:00;;;;;;;0.47;0.27;;;;;;;18.87;64.01;96183.66;10447598;28;20029;-29
2023/10/31 22:31:03;;;;;;;0.47;0.20;;;;;;;18.86;64.21;96176.03;10447406;28;20039;-29
2023/10/31 22:36:03;;;;;;;0.40;0.32;;;;;;;18.86;64.07;96176.91;10448468;28;20033;-29
2023/10/31 22:41:06;;;;;;;0.75;0.40;;;;;;;18.87;63.92;96177.72;10455497;28;20028;-29
2023/10/31 22:46:08;;;;;;;0.38;0.15;;;;;;;18.86;64.12;96186.19;10454424;28;20037;-28
2023/10/31 22:51:08;;;;;;;0.30;0.20;;;;;;;18.84;64.03;96183.66;10456453;28;20029;-29
2023/10/31 22:56:09;;;;;;;0.55;0.40;;;;;;;18.83;63.85;96171.84;10468579;28;20025;-29
2023/10/31 23:01:09;;;;;;;1.13;0.27;;;;;;;18.84;64.04;96177.75;10452929;28;20039;-29
2023/10/31 23:06:10;;;;;;;0.20;0.20;;;;;;;18.83;63.94;96176.09;10454391;28;20290;-29
2023/10/31 23:11:10;;;;;;;0.47;0.30;;;;;;;18.82;63.91;96165.09;10452653;28;20033;-28
2023/10/31 23:16:10;;;;;;;0.47;0.20;;;;;;;18.83;63.77;96171.84;10453755;28;20041;-29